Adelanto, California
Current Conditions -  °F | °C
As of 4:35 PM on Saturday 22 Nov 2014 (Local Time) from KVCV Reporting Station
Clear Clear  
Wind Chill: 63°   Ceiling: Unl
Heat Index: 63°   Visibility: 7mi
Dew Point: 43°   Wind: 26mph
Humidity: 48%   Direction: 270°W
Pressure: 30"   Gusts: 33mph
Location:  34.58°N, 117.41°W
Report Text: KVCV 230035Z AUTO 27023G29KT 7SM CLR 17/06 A3000 RMK AO2
Loading
Personal Weather Stations






























Interactive Weather Map New forecast layout! Learn more

10-Day Weather Forecast

Advertisements
Track Severe Weather on mobile